createdAt,value
2022-10-06T00:00:17.459Z,188.18
2022-10-06T00:01:12.509Z,191.14
2022-10-06T00:02:07.532Z,193.16
2022-10-06T00:03:02.511Z,194.08
2022-10-06T00:03:57.640Z,196.99
2022-10-06T00:04:52.666Z,198.06
2022-10-06T00:05:47.711Z,198.78
2022-10-06T00:06:42.673Z,199.51
2022-10-06T00:07:37.770Z,200.48
2022-10-06T00:08:32.905Z,202.21
2022-10-06T00:09:28.609Z,202.96
2022-10-06T00:10:23.563Z,202.46
2022-10-06T00:11:18.587Z,201.84
2022-10-06T00:12:13.700Z,201.71
2022-10-06T00:13:08.876Z,201.22
2022-10-06T00:14:03.858Z,202.33
2022-10-06T00:14:58.951Z,203.59
2022-10-06T00:15:54.149Z,202.46
2022-10-06T00:16:49.128Z,204.99
2022-10-06T00:17:44.234Z,205.12
2022-10-06T00:18:39.235Z,206.28
2022-10-06T00:19:34.303Z,206.41
2022-10-06T00:20:29.405Z,208.37
2022-10-06T00:21:24.360Z,208.51
2022-10-06T00:22:19.487Z,209.97
2022-10-06T00:23:14.757Z,210.92
2022-10-06T00:24:09.753Z,212.56
2022-10-06T00:25:05.535Z,212.15
2022-10-06T00:26:00.813Z,213.80
2022-10-06T00:26:56.012Z,215.07
2022-10-06T00:27:51.285Z,217.92
2022-10-06T00:28:46.556Z,218.79
2022-10-06T00:29:41.502Z,218.65
2022-10-06T00:30:36.625Z,220.12
2022-10-06T00:31:31.754Z,224.95
2022-10-06T00:32:26.738Z,226.81
2022-10-06T00:33:21.852Z,226.03
2022-10-06T00:34:16.904Z,228.55
2022-10-06T00:35:11.910Z,228.71
2022-10-06T00:36:06.970Z,230.80
2022-10-06T00:37:02.041Z,231.61
2022-10-06T00:37:57.149Z,232.60
2022-10-06T00:38:52.202Z,233.76
2022-10-06T00:39:47.265Z,233.93
2022-10-06T00:40:42.342Z,234.60
2022-10-06T00:41:37.546Z,233.76
2022-10-06T00:42:32.670Z,235.60
2022-10-06T00:43:27.803Z,235.44
2022-10-06T00:44:22.739Z,235.27
2022-10-06T00:45:17.790Z,235.60
2022-10-06T00:46:12.851Z,236.45
2022-10-06T00:47:07.929Z,235.77
2022-10-06T00:48:03.201Z,237.65
2022-10-06T00:48:58.132Z,236.45
2022-10-06T00:49:56.695Z,233.59
2022-10-06T00:50:51.767Z,234.09
2022-10-06T00:51:46.712Z,235.77
2022-10-06T00:52:41.762Z,235.10
2022-10-06T00:53:36.805Z,235.27
2022-10-06T00:54:31.891Z,235.77
2022-10-06T00:55:26.979Z,234.76
2022-10-06T00:56:22.217Z,235.77
2022-10-06T00:57:17.293Z,235.44
2022-10-06T00:58:12.334Z,235.27
2022-10-06T00:59:07.569Z,235.60
2022-10-06T01:00:02.570Z,234.60
2022-10-06T01:00:57.630Z,234.43
2022-10-06T01:01:52.747Z,234.76
2022-10-06T01:02:47.977Z,235.77
2022-10-06T01:03:43.779Z,236.97
2022-10-06T01:04:39.018Z,235.94
2022-10-06T01:05:34.999Z,235.77
2022-10-06T01:06:30.101Z,235.27
2022-10-06T01:07:25.360Z,235.60
2022-10-06T01:08:21.167Z,236.45
2022-10-06T01:09:16.403Z,237.31
2022-10-06T01:10:11.776Z,238.34
2022-10-06T01:11:08.121Z,240.97
2022-10-06T01:12:03.330Z,240.09
2022-10-06T01:12:59.207Z,239.91
2022-10-06T01:13:54.500Z,240.79
2022-10-06T01:14:49.965Z,240.62
2022-10-06T01:15:45.634Z,240.79
2022-10-06T01:16:40.831Z,243.65
2022-10-06T01:17:36.593Z,242.75
2022-10-06T01:18:32.000Z,244.93
2022-10-06T01:19:27.232Z,245.84
2022-10-06T01:20:22.924Z,244.38
2022-10-06T01:21:18.162Z,246.58
2022-10-06T01:22:13.351Z,248.26
2022-10-06T01:23:09.812Z,246.03
2022-10-06T01:24:05.027Z,249.02
2022-10-06T01:25:00.754Z,248.45
2022-10-06T01:25:55.923Z,249.21
2022-10-06T01:26:51.182Z,249.77
2022-10-06T01:27:47.085Z,250.73
2022-10-06T01:28:42.270Z,250.92
2022-10-06T01:29:37.904Z,252.46
2022-10-06T01:30:33.104Z,254.23
2022-10-06T01:31:28.501Z,252.66
2022-10-06T01:32:24.218Z,253.83
2022-10-06T01:33:19.436Z,255.81
2022-10-06T01:34:14.646Z,258.23
2022-10-06T01:35:10.933Z,257.21
2022-10-06T01:36:06.145Z,261.94
2022-10-06T01:37:01.346Z,261.52
2022-10-06T01:37:56.575Z,261.52
2022-10-06T01:38:52.346Z,261.52
2022-10-06T01:39:47.568Z,261.73
2022-10-06T01:40:43.282Z,264.26
2022-10-06T01:41:38.415Z,265.11
2022-10-06T01:42:33.785Z,266.40
2022-10-06T01:43:29.535Z,267.93
2022-10-06T01:44:24.726Z,269.47
2022-10-06T01:45:19.862Z,266.62
2022-10-06T01:46:16.297Z,269.47
2022-10-06T01:47:11.565Z,271.02
2022-10-06T01:48:07.346Z,271.92
2022-10-06T01:49:02.471Z,273.28
2022-10-06T01:49:57.595Z,275.11
2022-10-06T01:50:53.410Z,273.74
2022-10-06T01:51:48.741Z,275.35
2022-10-06T01:52:44.723Z,276.51
2022-10-06T01:53:39.690Z,279.09
2022-10-06T01:54:35.011Z,278.38
2022-10-06T01:55:30.253Z,279.33
2022-10-06T01:56:25.441Z,276.97
2022-10-06T01:57:20.642Z,280.05
2022-10-06T01:58:15.820Z,282.21
2022-10-06T01:59:11.663Z,283.19
2022-10-06T02:00:06.954Z,282.21
2022-10-06T02:01:02.247Z,284.91
2022-10-06T02:01:58.092Z,286.15
2022-10-06T02:02:53.204Z,284.42
2022-10-06T02:03:48.369Z,285.90
2022-10-06T02:04:43.504Z,289.18
2022-10-06T02:05:38.468Z,285.65
2022-10-06T02:06:33.669Z,286.90
2022-10-06T02:07:28.788Z,287.40
2022-10-06T02:08:23.624Z,288.16
2022-10-06T02:09:18.747Z,286.65
2022-10-06T02:10:13.864Z,288.42
2022-10-06T02:11:08.880Z,288.92
2022-10-06T02:12:04.108Z,290.46
2022-10-06T02:12:59.079Z,295.16
2022-10-06T02:13:54.193Z,292.01
2022-10-06T02:14:49.314Z,292.79
2022-10-06T02:15:44.311Z,293.05
2022-10-06T02:16:39.339Z,294.63
2022-10-06T02:17:34.423Z,297.84
2022-10-06T02:18:29.703Z,297.03
2022-10-06T02:19:24.546Z,301.40
2022-10-06T02:20:19.641Z,301.40
2022-10-06T02:21:14.729Z,300.57
2022-10-06T02:22:09.835Z,303.91
2022-10-06T02:23:04.930Z,302.79
2022-10-06T02:24:00.139Z,303.63
2022-10-06T02:24:55.252Z,300.29
2022-10-06T02:25:50.491Z,303.91
2022-10-06T02:26:45.731Z,306.75
2022-10-06T02:27:40.802Z,307.33
2022-10-06T02:28:35.842Z,307.04
2022-10-06T02:29:30.946Z,307.33
2022-10-06T02:30:25.969Z,309.35
2022-10-06T02:31:21.029Z,309.35
2022-10-06T02:32:15.965Z,309.35
2022-10-06T02:33:11.097Z,309.35
2022-10-06T02:34:06.207Z,307.33
2022-10-06T02:35:01.345Z,309.94
2022-10-06T02:35:56.320Z,306.75
2022-10-06T02:36:51.394Z,307.61
2022-10-06T02:37:46.404Z,307.33
2022-10-06T02:38:41.485Z,307.61
2022-10-06T02:39:36.566Z,309.35
2022-10-06T02:40:31.719Z,307.33
2022-10-06T02:41:26.693Z,307.61
2022-10-06T02:42:21.815Z,307.04
2022-10-06T02:43:16.907Z,304.76
2022-10-06T02:44:12.111Z,305.32
2022-10-06T02:45:07.321Z,304.76
2022-10-06T02:46:02.513Z,305.89
2022-10-06T02:46:57.686Z,308.77
2022-10-06T02:47:52.722Z,305.89
2022-10-06T02:48:47.840Z,307.33
2022-10-06T02:49:42.977Z,308.19
2022-10-06T02:50:38.060Z,310.52
2022-10-06T02:51:33.438Z,308.48
2022-10-06T02:52:28.539Z,311.11
2022-10-06T02:53:23.637Z,312.89
2022-10-06T02:54:18.906Z,312.60
2022-10-06T02:55:13.998Z,315.91
2022-10-06T02:56:09.225Z,314.69
2022-10-06T02:57:04.497Z,318.36
2022-10-06T02:57:59.479Z,317.43
2022-10-06T02:58:54.582Z,317.43
2022-10-06T02:59:49.712Z,317.43
2022-10-06T03:00:44.820Z,315.60
2022-10-06T03:01:39.971Z,317.13
2022-10-06T03:02:35.120Z,317.13
2022-10-06T03:03:30.018Z,318.36
2022-10-06T03:04:25.261Z,317.74
2022-10-06T03:05:20.244Z,319.60
2022-10-06T03:06:15.470Z,317.43
2022-10-06T03:07:10.737Z,315.91
2022-10-06T03:08:05.770Z,312.60
2022-10-06T03:09:00.760Z,314.69
2022-10-06T03:09:55.870Z,315.91
2022-10-06T03:10:50.869Z,314.09
2022-10-06T03:11:45.856Z,310.23
2022-10-06T03:12:40.872Z,310.82
2022-10-06T03:13:35.963Z,310.23
2022-10-06T03:14:30.996Z,311.11
2022-10-06T03:15:25.986Z,310.82
2022-10-06T03:16:21.148Z,310.23
2022-10-06T03:17:16.222Z,308.48
2022-10-06T03:18:11.239Z,306.18
2022-10-06T03:19:06.387Z,306.46
2022-10-06T03:20:01.399Z,305.89
2022-10-06T03:20:58.918Z,307.33
2022-10-06T03:21:53.974Z,309.94
2022-10-06T03:22:49.137Z,306.46
2022-10-06T03:23:44.246Z,308.77
2022-10-06T03:24:39.366Z,307.90
2022-10-06T03:25:34.466Z,307.90
2022-10-06T03:26:29.496Z,305.89
2022-10-06T03:27:24.555Z,306.18
2022-10-06T03:28:19.628Z,307.61
2022-10-06T03:29:14.640Z,310.52
2022-10-06T03:30:09.662Z,308.19
2022-10-06T03:31:04.686Z,308.19
2022-10-06T03:31:59.792Z,305.61
2022-10-06T03:32:54.923Z,305.61
2022-10-06T03:33:50.084Z,304.19
2022-10-06T03:34:45.767Z,297.03
2022-10-06T03:35:41.052Z,291.23
2022-10-06T03:36:36.849Z,292.27
2022-10-06T03:37:32.091Z,289.69
2022-10-06T03:38:27.627Z,269.02
2022-10-06T03:39:23.128Z,268.80
2022-10-06T03:40:18.283Z,275.58
2022-10-06T03:41:13.483Z,279.09
2022-10-06T03:42:09.860Z,287.40
2022-10-06T03:43:04.982Z,293.84
2022-10-06T03:44:00.784Z,294.37
2022-10-06T03:44:55.877Z,294.37
2022-10-06T03:45:50.986Z,294.90
2022-10-06T03:46:47.009Z,296.76
2022-10-06T03:47:42.039Z,298.11
2022-10-06T03:48:37.982Z,300.57
2022-10-06T03:49:33.111Z,303.35
2022-10-06T03:50:28.123Z,304.76
2022-10-06T03:51:23.938Z,304.19
2022-10-06T03:52:23.610Z,307.90
2022-10-06T03:53:15.406Z,308.19
2022-10-06T03:54:09.517Z,309.94
2022-10-06T03:55:05.366Z,308.77
2022-10-06T03:56:00.509Z,305.32
2022-10-06T03:56:55.700Z,307.90
2022-10-06T03:57:51.918Z,306.75
2022-10-06T03:58:47.192Z,305.89
2022-10-06T03:59:43.036Z,305.32
2022-10-06T04:00:38.202Z,308.48
2022-10-06T04:01:33.516Z,300.84
2022-10-06T04:02:29.282Z,300.02
2022-10-06T04:03:24.407Z,297.57
2022-10-06T04:04:20.327Z,293.84
2022-10-06T04:05:15.462Z,284.91
2022-10-06T04:06:10.621Z,286.90
2022-10-06T04:07:06.433Z,286.65
2022-10-06T04:08:01.662Z,287.91
2022-10-06T04:08:57.340Z,289.18
2022-10-06T04:09:52.488Z,290.71
2022-10-06T04:10:47.604Z,296.23
2022-10-06T04:11:43.429Z,296.49
2022-10-06T04:12:38.690Z,298.38
2022-10-06T04:13:34.639Z,295.43
2022-10-06T04:14:29.680Z,298.11
2022-10-06T04:15:24.809Z,297.57
2022-10-06T04:16:20.669Z,297.03
2022-10-06T04:17:15.796Z,298.93
2022-10-06T04:18:11.056Z,299.47
2022-10-06T04:19:07.426Z,294.90
2022-10-06T04:20:02.445Z,290.97
2022-10-06T04:20:58.254Z,293.05
2022-10-06T04:21:53.484Z,296.49
2022-10-06T04:22:48.816Z,297.03
2022-10-06T04:23:44.420Z,296.76
2022-10-06T04:24:39.481Z,298.11
2022-10-06T04:25:34.617Z,295.96
2022-10-06T04:26:29.744Z,297.30
2022-10-06T04:27:24.962Z,298.65
2022-10-06T04:28:19.998Z,296.49
2022-10-06T04:29:15.136Z,299.74
2022-10-06T04:30:10.075Z,298.11
2022-10-06T04:31:05.140Z,294.90
2022-10-06T04:32:00.350Z,293.84
2022-10-06T04:32:55.261Z,292.53
2022-10-06T04:33:50.397Z,289.69
2022-10-06T04:34:45.384Z,287.91
2022-10-06T04:35:40.370Z,290.71
2022-10-06T04:36:35.389Z,294.90
2022-10-06T04:37:30.411Z,297.57
2022-10-06T04:38:25.459Z,296.23
2022-10-06T04:39:20.478Z,303.91
2022-10-06T04:40:15.490Z,303.35
2022-10-06T04:41:10.592Z,295.43
2022-10-06T04:42:05.609Z,294.37
2022-10-06T04:43:02.426Z,293.84
2022-10-06T04:43:57.654Z,299.20
2022-10-06T04:44:52.823Z,298.65
2022-10-06T04:45:47.722Z,300.29
2022-10-06T04:46:44.519Z,305.04
2022-10-06T04:47:37.800Z,310.52
2022-10-06T04:48:33.061Z,312.60
2022-10-06T04:49:28.071Z,308.19
2022-10-06T04:50:23.056Z,307.61
2022-10-06T04:51:18.157Z,307.61
2022-10-06T04:52:13.155Z,307.33
2022-10-06T04:53:08.175Z,304.19
2022-10-06T04:54:03.281Z,299.74
2022-10-06T04:54:58.433Z,292.01
2022-10-06T04:55:53.428Z,287.40
2022-10-06T04:56:48.520Z,290.46
2022-10-06T04:57:43.621Z,293.58
2022-10-06T04:58:38.767Z,296.23
2022-10-06T04:59:34.027Z,288.42
2022-10-06T05:00:29.172Z,271.92
2022-10-06T05:01:24.375Z,267.93
2022-10-06T05:02:19.761Z,265.33
2022-10-06T05:03:14.789Z,264.05
2022-10-06T05:04:11.304Z,262.15
2022-10-06T05:05:06.470Z,259.04
2022-10-06T05:06:02.322Z,262.36
2022-10-06T05:06:57.458Z,234.26
2022-10-06T05:07:52.662Z,190.14
2022-10-06T05:08:48.489Z,195.12
2022-10-06T05:09:43.770Z,202.96
2022-10-06T05:10:39.496Z,210.51
2022-10-06T05:11:34.701Z,213.53
2022-10-06T05:12:30.063Z,220.71
2022-10-06T05:13:25.800Z,234.76
2022-10-06T05:14:21.159Z,244.38
2022-10-06T05:15:16.198Z,253.64
2022-10-06T05:16:12.810Z,261.94
2022-10-06T05:17:07.997Z,267.93
2022-10-06T05:18:03.719Z,271.47
2022-10-06T05:18:58.948Z,275.35
2022-10-06T05:19:54.152Z,279.09
2022-10-06T05:20:49.898Z,282.70
2022-10-06T05:21:45.104Z,286.40
2022-10-06T05:22:41.022Z,286.65
2022-10-06T05:23:36.132Z,288.16
2022-10-06T05:24:31.371Z,285.65
2022-10-06T05:25:27.211Z,281.25
2022-10-06T05:26:22.443Z,282.21
2022-10-06T05:27:17.801Z,283.68
2022-10-06T05:28:14.256Z,214.93
2022-10-06T05:29:09.513Z,213.53
2022-10-06T05:30:05.244Z,215.35
2022-10-06T05:31:00.688Z,229.83
2022-10-06T05:31:56.146Z,240.26
2022-10-06T05:32:51.751Z,248.83
2022-10-06T05:33:47.088Z,253.44
2022-10-06T05:34:42.820Z,257.62
2022-10-06T05:35:38.137Z,264.05
2022-10-06T05:36:33.579Z,270.80
2022-10-06T05:37:29.191Z,274.88
2022-10-06T05:38:24.447Z,270.35
2022-10-06T05:39:19.761Z,269.02
2022-10-06T05:40:16.056Z,269.24
2022-10-06T05:41:11.393Z,262.78
2022-10-06T05:42:07.123Z,249.39
2022-10-06T05:43:02.409Z,249.21
2022-10-06T05:43:57.726Z,252.66
2022-10-06T05:44:53.464Z,255.81
2022-10-06T05:45:48.930Z,258.43
2022-10-06T05:46:44.620Z,261.94
2022-10-06T05:47:39.963Z,266.40
2022-10-06T05:48:35.358Z,257.82
2022-10-06T05:49:31.144Z,255.21
2022-10-06T05:50:26.516Z,251.88
2022-10-06T05:51:22.586Z,182.38
2022-10-06T05:52:18.191Z,160.46
2022-10-06T05:53:13.521Z,159.08
2022-10-06T05:54:09.295Z,161.23
2022-10-06T05:55:04.645Z,160.92
2022-10-06T05:56:00.126Z,165.88
2022-10-06T05:56:55.990Z,168.39
2022-10-06T05:57:51.199Z,171.86
2022-10-06T05:58:47.124Z,171.33
2022-10-06T05:59:42.415Z,176.40
2022-10-06T06:00:37.798Z,174.74
2022-10-06T06:01:33.689Z,173.29
2022-10-06T06:02:29.163Z,169.93
2022-10-06T06:03:24.408Z,166.04
2022-10-06T06:04:23.606Z,154.66
2022-10-06T06:05:19.157Z,145.49
2022-10-06T06:06:14.496Z,129.46
2022-10-06T06:07:10.403Z,115.56
2022-10-06T06:08:05.848Z,104.69
2022-10-06T06:09:01.326Z,98.10
2022-10-06T06:09:57.569Z,91.96
2022-10-06T06:10:52.968Z,83.00
2022-10-06T06:11:48.859Z,75.76
2022-10-06T06:12:44.338Z,73.82
2022-10-06T06:13:39.683Z,72.60
2022-10-06T06:14:35.463Z,73.23
2022-10-06T06:15:30.825Z,71.42
2022-10-06T06:16:26.711Z,71.05
2022-10-06T06:17:22.004Z,70.99
2022-10-06T06:18:17.433Z,71.42
2022-10-06T06:19:13.159Z,72.22
2022-10-06T06:20:08.555Z,72.16
2022-10-06T06:21:03.953Z,72.47
2022-10-06T06:21:59.355Z,71.54
2022-10-06T06:22:54.749Z,71.72
2022-10-06T06:23:51.533Z,70.99
2022-10-06T06:24:46.939Z,70.75
2022-10-06T06:25:42.369Z,72.16
2022-10-06T06:26:38.028Z,72.22
2022-10-06T06:27:33.570Z,71.60
2022-10-06T06:28:29.642Z,70.99
2022-10-06T06:29:24.517Z,70.27
2022-10-06T06:30:19.545Z,69.69
2022-10-06T06:31:19.736Z,69.75
2022-10-06T06:32:11.131Z,68.65
2022-10-06T06:33:05.643Z,70.57
2022-10-06T06:34:00.877Z,71.60
2022-10-06T06:34:56.379Z,72.28
2022-10-06T06:35:51.665Z,73.43
2022-10-06T06:36:47.038Z,75.21
2022-10-06T06:37:43.544Z,74.61
2022-10-06T06:38:38.962Z,74.54
2022-10-06T06:39:34.492Z,73.11
2022-10-06T06:40:33.254Z,69.75
2022-10-06T06:41:28.529Z,66.89
2022-10-06T06:42:23.915Z,65.48
2022-10-06T06:43:19.385Z,63.63
2022-10-06T06:44:14.880Z,62.02
2022-10-06T06:45:11.498Z,60.27
2022-10-06T06:46:07.104Z,59.88
2022-10-06T06:47:02.296Z,59.84
2022-10-06T06:47:57.684Z,60.49
2022-10-06T06:48:53.373Z,61.29
2022-10-06T06:49:48.767Z,60.14
2022-10-06T06:50:44.177Z,61.97
2022-10-06T06:51:39.573Z,63.82
2022-10-06T06:52:34.947Z,64.51
2022-10-06T06:53:30.502Z,65.79
2022-10-06T06:54:25.764Z,67.27
2022-10-06T06:55:21.183Z,66.10
2022-10-06T06:56:16.610Z,63.34
2022-10-06T06:57:11.990Z,61.02
2022-10-06T06:58:07.099Z,59.12
2022-10-06T06:59:02.133Z,57.18
2022-10-06T06:59:57.102Z,53.96
2022-10-06T07:00:52.398Z,52.87
2022-10-06T07:01:47.574Z,52.93
2022-10-06T07:02:42.465Z,52.70
2022-10-06T07:03:57.648Z,53.30
2022-10-06T07:04:36.288Z,53.37
2022-10-06T07:05:30.864Z,53.00
2022-10-06T07:06:28.111Z,52.83
2022-10-06T07:07:21.662Z,52.76
2022-10-06T07:08:17.057Z,53.10
2022-10-06T07:09:12.440Z,53.89
2022-10-06T07:10:07.895Z,55.35
2022-10-06T07:11:03.301Z,56.48
2022-10-06T07:11:58.693Z,58.38
2022-10-06T07:12:54.125Z,60.10
2022-10-06T07:13:49.377Z,60.01
2022-10-06T07:14:44.739Z,60.54
2022-10-06T07:15:40.092Z,60.23
2022-10-06T07:16:35.499Z,59.33
2022-10-06T07:17:31.008Z,59.54
2022-10-06T07:18:26.650Z,59.16
2022-10-06T07:19:24.802Z,58.38
2022-10-06T07:20:17.198Z,57.33
2022-10-06T07:21:12.289Z,57.14
2022-10-06T07:22:07.309Z,58.87
2022-10-06T07:23:02.373Z,60.32
2022-10-06T07:23:57.436Z,61.38
2022-10-06T07:24:52.471Z,62.91
2022-10-06T07:25:47.524Z,64.61
2022-10-06T07:26:42.790Z,63.82
2022-10-06T07:27:37.997Z,62.49
2022-10-06T07:28:33.103Z,60.80
2022-10-06T07:29:28.093Z,60.58
2022-10-06T07:30:23.216Z,61.61
2022-10-06T07:31:18.272Z,61.29
2022-10-06T07:32:13.314Z,63.29
2022-10-06T07:33:08.400Z,64.12
2022-10-06T07:34:03.485Z,62.96
2022-10-06T07:34:58.549Z,60.93
2022-10-06T07:35:53.592Z,59.37
2022-10-06T07:36:48.756Z,57.97
2022-10-06T07:37:44.272Z,57.25
2022-10-06T07:38:39.760Z,57.14
2022-10-06T07:39:35.202Z,57.65
2022-10-06T07:40:30.672Z,59.25
2022-10-06T07:41:26.080Z,60.14
2022-10-06T07:42:21.682Z,60.62
2022-10-06T07:43:16.900Z,62.49
2022-10-06T07:44:11.926Z,64.56
2022-10-06T07:45:07.339Z,67.00
2022-10-06T07:46:02.085Z,68.32
2022-10-06T07:46:57.126Z,67.32
2022-10-06T07:47:52.199Z,67.38
2022-10-06T07:48:47.326Z,70.33
2022-10-06T07:49:42.429Z,74.21
2022-10-06T07:50:37.520Z,79.21
2022-10-06T07:51:34.475Z,81.70
2022-10-06T07:52:29.527Z,83.24
2022-10-06T07:53:24.633Z,84.42
2022-10-06T07:54:22.834Z,86.98
2022-10-06T07:55:15.799Z,88.92
2022-10-06T07:56:09.785Z,90.76
2022-10-06T07:57:04.815Z,95.87
2022-10-06T07:57:59.897Z,96.74
2022-10-06T07:58:55.015Z,97.59
2022-10-06T07:59:50.186Z,99.57
2022-10-06T08:00:46.852Z,96.57
2022-10-06T08:01:42.221Z,96.85
2022-10-06T08:02:38.145Z,96.74
2022-10-06T08:03:33.505Z,98.98
2022-10-06T08:04:29.068Z,99.86
2022-10-06T08:05:24.819Z,99.75
2022-10-06T08:06:20.297Z,99.69
2022-10-06T08:07:16.166Z,95.79
2022-10-06T08:08:11.504Z,97.02
2022-10-06T08:09:06.919Z,98.05
2022-10-06T08:10:02.793Z,98.05
2022-10-06T08:11:00.310Z,98.16
2022-10-06T08:11:53.593Z,98.10
2022-10-06T08:12:48.626Z,97.08
2022-10-06T08:13:43.929Z,98.10
2022-10-06T08:14:38.762Z,99.69
2022-10-06T08:15:33.739Z,102.00
2022-10-06T08:16:28.926Z,103.33
2022-10-06T08:17:24.057Z,107.66
2022-10-06T08:18:41.066Z,107.87
2022-10-06T08:19:15.291Z,109.71
2022-10-06T08:20:09.346Z,114.85
2022-10-06T08:21:04.361Z,119.37
2022-10-06T08:22:04.431Z,107.18
2022-10-06T08:22:59.155Z,99.75
2022-10-06T08:23:53.237Z,105.68
2022-10-06T08:25:05.197Z,104.82
2022-10-06T08:25:44.389Z,97.42
2022-10-06T08:26:38.448Z,90.17
2022-10-06T08:27:33.692Z,89.11
2022-10-06T08:28:28.673Z,96.07
2022-10-06T08:29:23.832Z,96.13
2022-10-06T08:30:19.645Z,96.79
2022-10-06T08:31:14.904Z,92.57
2022-10-06T08:32:11.428Z,95.47
2022-10-06T08:33:07.039Z,101.26
2022-10-06T08:34:02.886Z,110.37
2022-10-06T08:34:58.837Z,118.02
2022-10-06T08:35:53.850Z,123.70
2022-10-06T08:37:08.584Z,128.76
2022-10-06T08:37:46.335Z,131.81
2022-10-06T08:38:41.085Z,135.01
2022-10-06T08:39:36.607Z,139.29
2022-10-06T08:40:32.169Z,142.14
2022-10-06T08:41:28.034Z,143.36
2022-10-06T08:42:23.414Z,147.03
2022-10-06T08:43:18.939Z,151.15
2022-10-06T08:44:15.186Z,155.67
2022-10-06T08:45:10.698Z,156.40
2022-10-06T08:46:06.528Z,151.43
2022-10-06T08:47:02.056Z,146.00
2022-10-06T08:47:57.536Z,145.87
2022-10-06T08:48:53.168Z,150.88
2022-10-06T08:49:48.896Z,150.47
2022-10-06T08:50:44.402Z,150.88
2022-10-06T08:51:39.962Z,149.40
2022-10-06T08:52:35.779Z,145.62
2022-10-06T08:53:31.285Z,145.11
2022-10-06T08:54:26.831Z,141.90
2022-10-06T08:55:23.098Z,138.72
2022-10-06T08:56:18.584Z,142.75
2022-10-06T08:57:14.391Z,147.42
2022-10-06T08:59:05.959Z,151.98
2022-10-06T09:00:01.495Z,151.15
2022-10-06T09:00:57.188Z,153.38
2022-10-06T09:01:52.736Z,156.10
2022-10-06T09:02:48.600Z,161.54
2022-10-06T09:03:44.019Z,165.22
2022-10-06T09:04:39.593Z,166.88
2022-10-06T09:05:35.279Z,166.21
2022-10-06T09:06:30.561Z,167.21
2022-10-06T09:07:26.118Z,166.21
2022-10-06T09:08:22.647Z,169.59
2022-10-06T09:09:18.321Z,171.33
2022-10-06T09:10:13.866Z,171.68
2022-10-06T09:11:09.423Z,170.63
2022-10-06T09:12:05.040Z,168.90
2022-10-06T09:13:00.335Z,162.65
2022-10-06T09:13:56.252Z,150.88
2022-10-06T09:14:51.728Z,138.95
2022-10-06T09:15:47.108Z,154.37
2022-10-06T09:16:42.406Z,164.90
2022-10-06T09:17:37.473Z,168.22
2022-10-06T09:19:03.337Z,170.98
2022-10-06T09:19:32.876Z,158.93
2022-10-06T09:20:23.591Z,143.61
2022-10-06T09:21:18.710Z,132.13
2022-10-06T09:22:13.754Z,122.79
2022-10-06T09:23:08.796Z,117.93
2022-10-06T09:24:03.840Z,114.38
2022-10-06T09:24:58.935Z,106.77
2022-10-06T09:25:54.049Z,97.47
2022-10-06T09:26:49.138Z,98.51
2022-10-06T09:27:44.242Z,101.07
2022-10-06T09:28:39.476Z,103.58
2022-10-06T09:29:34.453Z,103.65
2022-10-06T09:30:29.482Z,105.48
2022-10-06T09:31:24.531Z,105.35
2022-10-06T09:32:19.521Z,105.95
2022-10-06T09:33:14.686Z,109.14
2022-10-06T09:34:09.790Z,113.68
2022-10-06T09:35:04.811Z,116.45
2022-10-06T09:35:59.831Z,116.86
2022-10-06T09:36:57.724Z,110.44
2022-10-06T09:37:52.001Z,114.22
2022-10-06T09:38:46.498Z,121.72
2022-10-06T09:39:42.358Z,126.71
2022-10-06T09:40:37.651Z,126.23
2022-10-06T09:41:33.227Z,129.46
2022-10-06T09:42:28.827Z,131.71
2022-10-06T09:43:24.368Z,131.92
2022-10-06T09:44:20.746Z,127.19
2022-10-06T09:45:15.666Z,121.54
2022-10-06T09:46:11.084Z,106.97
2022-10-06T09:47:07.330Z,88.83
2022-10-06T09:48:02.719Z,82.58
2022-10-06T09:48:58.198Z,82.50
2022-10-06T09:49:54.971Z,84.94
2022-10-06T09:50:50.045Z,84.42
2022-10-06T09:51:45.801Z,82.10
2022-10-06T09:52:41.318Z,83.16
2022-10-06T09:53:37.805Z,81.06
2022-10-06T09:54:32.496Z,78.47
2022-10-06T09:55:28.091Z,77.45
2022-10-06T09:56:23.808Z,80.28
2022-10-06T09:57:19.135Z,79.97
2022-10-06T09:58:14.585Z,83.00
2022-10-06T09:59:10.366Z,83.58
2022-10-06T10:00:05.814Z,85.03
2022-10-06T10:01:01.314Z,84.00
2022-10-06T10:01:57.643Z,84.17
2022-10-06T10:02:53.099Z,85.90
2022-10-06T10:04:08.524Z,88.92
2022-10-06T10:04:48.350Z,91.06
2022-10-06T10:05:42.244Z,92.37
2022-10-06T10:06:36.746Z,89.98
2022-10-06T10:07:32.764Z,86.61
2022-10-06T10:08:28.207Z,85.03
2022-10-06T10:09:23.731Z,86.26
2022-10-06T10:10:19.508Z,85.55
2022-10-06T10:11:14.860Z,85.81
2022-10-06T10:12:10.751Z,86.98
2022-10-06T10:13:06.022Z,81.70
2022-10-06T10:14:01.533Z,78.25
2022-10-06T10:14:57.638Z,73.95
2022-10-06T10:15:52.781Z,73.75
2022-10-06T10:16:52.293Z,74.28
2022-10-06T10:17:45.615Z,75.28
2022-10-06T10:18:40.112Z,80.59
2022-10-06T10:19:35.961Z,85.90
2022-10-06T10:20:31.469Z,87.61
2022-10-06T10:21:26.916Z,86.61
2022-10-06T10:22:22.661Z,90.66
2022-10-06T10:23:18.091Z,93.40
2022-10-06T10:24:13.539Z,82.34
2022-10-06T10:25:09.226Z,77.31
2022-10-06T10:26:04.719Z,78.91
2022-10-06T10:27:00.152Z,78.76
2022-10-06T10:27:55.677Z,81.46
2022-10-06T10:28:52.039Z,87.43
2022-10-06T10:29:47.463Z,87.71
2022-10-06T10:30:43.130Z,84.94
2022-10-06T10:31:38.727Z,86.08
2022-10-06T10:32:34.244Z,81.54
2022-10-06T10:33:29.910Z,84.51
2022-10-06T10:34:25.388Z,89.40
2022-10-06T10:35:21.093Z,93.82
2022-10-06T10:36:16.600Z,89.59
2022-10-06T10:37:12.129Z,89.21
2022-10-06T10:38:12.323Z,94.60
2022-10-06T10:39:04.456Z,95.68
2022-10-06T10:39:59.047Z,97.19
2022-10-06T10:40:54.135Z,96.35
2022-10-06T10:41:49.179Z,96.57
2022-10-06T10:42:44.224Z,103.26
2022-10-06T10:43:39.192Z,116.29
2022-10-06T10:44:34.364Z,128.37
2022-10-06T10:45:29.255Z,134.79
2022-10-06T10:46:24.402Z,141.06
2022-10-06T10:47:19.434Z,150.61
2022-10-06T10:48:14.609Z,162.65
2022-10-06T10:49:09.613Z,173.47
2022-10-06T10:50:04.601Z,177.90
2022-10-06T10:50:59.692Z,185.01
2022-10-06T10:51:54.783Z,175.10
2022-10-06T10:52:49.813Z,179.24
2022-10-06T10:53:44.884Z,173.83
2022-10-06T10:54:42.874Z,180.02
2022-10-06T10:55:38.178Z,171.51
2022-10-06T10:56:33.739Z,181.78
2022-10-06T10:57:29.219Z,177.72
2022-10-06T10:58:25.643Z,151.57
2022-10-06T10:59:21.041Z,146.00
2022-10-06T11:00:16.741Z,171.51
2022-10-06T11:01:12.397Z,198.90
2022-10-06T11:02:07.898Z,210.92
2022-10-06T11:03:03.460Z,221.30
2022-10-06T11:03:58.979Z,229.67
2022-10-06T11:04:54.757Z,222.65
2022-10-06T11:05:50.111Z,221.45
2022-10-06T11:06:45.699Z,225.25
2022-10-06T11:07:41.562Z,231.61
2022-10-06T11:08:36.962Z,214.08
2022-10-06T11:09:32.389Z,209.17
2022-10-06T11:10:28.822Z,207.32
2022-10-06T11:11:24.361Z,213.39
2022-10-06T11:12:20.213Z,212.97
2022-10-06T11:13:15.637Z,196.87
2022-10-06T11:14:11.142Z,189.92
2022-10-06T11:15:07.049Z,176.40
2022-10-06T11:16:02.447Z,162.49
2022-10-06T11:16:58.237Z,163.92
2022-10-06T11:17:53.655Z,169.93
2022-10-06T11:18:49.142Z,160.15
2022-10-06T11:19:45.048Z,155.23
2022-10-06T11:20:40.451Z,156.84
2022-10-06T11:21:35.988Z,154.51
2022-10-06T11:22:32.204Z,139.88
2022-10-06T11:23:27.682Z,128.07
2022-10-06T11:24:23.500Z,134.04
2022-10-06T11:25:19.101Z,141.78
2022-10-06T11:26:14.696Z,140.11
2022-10-06T11:27:10.406Z,129.66
2022-10-06T11:28:05.982Z,122.70
2022-10-06T11:29:01.756Z,128.56
2022-10-06T11:29:57.400Z,140.47
2022-10-06T11:30:52.574Z,143.36
2022-10-06T11:31:48.464Z,141.18
2022-10-06T11:32:43.826Z,153.10
2022-10-06T11:33:39.321Z,161.54
2022-10-06T11:34:35.709Z,160.61
2022-10-06T11:35:31.609Z,144.11
2022-10-06T11:36:27.124Z,138.95
2022-10-06T11:37:22.650Z,141.06
2022-10-06T11:38:18.151Z,135.78